createdAt,value
2022-08-02T00:01:00.352Z,19.35
2022-08-02T00:03:27.278Z,19.19
2022-08-02T00:05:54.197Z,19.14
2022-08-02T00:08:22.799Z,19.13
2022-08-02T00:10:50.123Z,19.14
2022-08-02T00:13:17.251Z,19.17
2022-08-02T00:15:44.518Z,19.05
2022-08-02T00:18:11.981Z,19.12
2022-08-02T00:20:39.473Z,19.15
2022-08-02T00:23:06.637Z,18.85
2022-08-02T00:25:33.437Z,18.61
2022-08-02T00:28:00.484Z,18.61
2022-08-02T00:30:27.315Z,18.45
2022-08-02T00:32:54.245Z,18.33
2022-08-02T00:35:21.429Z,18.33
2022-08-02T00:37:48.245Z,18.26
2022-08-02T00:40:14.999Z,18.47
2022-08-02T00:42:42.135Z,18.71
2022-08-02T00:45:10.348Z,18.83
2022-08-02T00:47:38.417Z,18.88
2022-08-02T00:50:05.761Z,19.01
2022-08-02T00:52:32.788Z,18.84
2022-08-02T00:54:59.605Z,18.74
2022-08-02T00:57:26.424Z,18.87
2022-08-02T00:59:53.395Z,18.98
2022-08-02T01:02:20.825Z,19.04
2022-08-02T01:04:48.097Z,19.08
2022-08-02T01:07:15.913Z,19.04
2022-08-02T01:09:45.761Z,18.74
2022-08-02T01:12:14.376Z,18.63
2022-08-02T01:14:50.898Z,18.38
2022-08-02T01:17:33.243Z,18.44
2022-08-02T01:20:44.003Z,18.38
2022-08-02T01:24:11.346Z,18.31
2022-08-02T01:26:58.701Z,18.10
2022-08-02T01:29:37.566Z,18.04
2022-08-02T01:32:18.807Z,18.14
2022-08-02T01:35:07.440Z,18.07
2022-08-02T01:37:55.172Z,18.10
2022-08-02T01:40:34.578Z,18.12
2022-08-02T01:43:03.561Z,18.11
2022-08-02T01:45:36.117Z,18.12
2022-08-02T01:48:06.561Z,18.15
2022-08-02T01:50:37.944Z,17.96
2022-08-02T01:53:12.542Z,17.87
2022-08-02T01:55:57.640Z,17.77
2022-08-02T01:58:36.487Z,17.65
2022-08-02T02:01:08.269Z,17.50
2022-08-02T02:03:41.685Z,17.46
2022-08-02T02:06:12.988Z,17.31
2022-08-02T02:08:43.737Z,17.31
2022-08-02T02:12:10.152Z,17.44
2022-08-02T02:14:04.259Z,17.49
2022-08-02T02:16:33.856Z,17.68
2022-08-02T02:19:04.328Z,17.69
2022-08-02T02:21:31.563Z,17.64
2022-08-02T02:24:02.827Z,17.33
2022-08-02T02:26:36.535Z,17.11
2022-08-02T02:29:06.426Z,16.98
2022-08-02T02:31:39.508Z,16.87
2022-08-02T02:34:14.885Z,16.97
2022-08-02T02:36:48.728Z,17.01
2022-08-02T02:39:21.158Z,17.02
2022-08-02T02:41:51.681Z,17.03
2022-08-02T02:44:21.942Z,17.13
2022-08-02T02:46:55.149Z,17.08
2022-08-02T02:49:25.765Z,17.07
2022-08-02T02:51:56.031Z,17.02
2022-08-02T02:54:30.740Z,17.12
2022-08-02T02:57:02.891Z,17.12
2022-08-02T02:59:32.065Z,17.27
2022-08-02T03:01:59.991Z,17.48
2022-08-02T03:04:56.058Z,17.47
2022-08-02T03:07:16.979Z,17.57
2022-08-02T03:09:44.429Z,17.67
2022-08-02T03:12:20.023Z,17.45
2022-08-02T03:14:49.136Z,17.36
2022-08-02T03:17:17.058Z,17.29
2022-08-02T03:19:45.942Z,17.46
2022-08-02T03:22:13.107Z,17.52
2022-08-02T03:24:40.574Z,17.65
2022-08-02T03:27:07.515Z,17.82
2022-08-02T03:29:34.855Z,17.73
2022-08-02T03:32:03.873Z,17.89
2022-08-02T03:34:31.810Z,17.91
2022-08-02T03:37:00.264Z,17.63
2022-08-02T03:39:28.789Z,17.34
2022-08-02T03:41:56.235Z,17.20
2022-08-02T03:44:25.685Z,17.46
2022-08-02T03:46:54.774Z,17.56
2022-08-02T03:49:24.917Z,17.65
2022-08-02T03:51:53.501Z,17.75
2022-08-02T03:54:21.426Z,17.76
2022-08-02T03:56:48.793Z,17.78
2022-08-02T03:59:18.642Z,17.78
2022-08-02T04:01:46.370Z,17.57
2022-08-02T04:04:16.662Z,17.52
2022-08-02T04:06:44.028Z,17.66
2022-08-02T04:09:12.113Z,17.76
2022-08-02T04:11:40.494Z,17.79
2022-08-02T04:14:11.251Z,17.79
2022-08-02T04:16:48.249Z,17.70
2022-08-02T04:19:27.741Z,17.71
2022-08-02T04:21:58.009Z,17.64
2022-08-02T04:24:32.403Z,17.48
2022-08-02T04:27:19.449Z,17.18
2022-08-02T04:29:51.650Z,17.32
2022-08-02T04:32:20.345Z,17.54
2022-08-02T04:37:38.225Z,17.77
2022-08-02T04:40:25.502Z,17.80
2022-08-02T04:42:52.351Z,17.79
2022-08-02T04:45:21.917Z,17.92
2022-08-02T04:48:02.139Z,17.98
2022-08-02T04:50:30.701Z,18.07
2022-08-02T04:52:57.803Z,18.15
2022-08-02T04:55:28.680Z,18.23
2022-08-02T04:58:03.810Z,18.38
2022-08-02T05:00:46.521Z,18.35
2022-08-02T05:03:14.757Z,18.41
2022-08-02T05:05:41.749Z,18.44
2022-08-02T05:08:09.399Z,18.38
2022-08-02T05:10:36.830Z,18.35
2022-08-02T05:13:05.898Z,18.37
2022-08-02T05:15:33.558Z,18.53
2022-08-02T05:18:00.811Z,18.43
2022-08-02T05:20:27.872Z,18.65
2022-08-02T05:22:54.807Z,18.54
2022-08-02T05:25:22.968Z,18.42
2022-08-02T05:27:50.114Z,18.44
2022-08-02T05:30:17.657Z,18.53
2022-08-02T05:32:51.181Z,18.65
2022-08-02T05:35:22.011Z,18.76
2022-08-02T05:37:51.289Z,18.92
2022-08-02T05:40:21.626Z,18.88
2022-08-02T05:42:54.434Z,18.81
2022-08-02T05:45:22.145Z,18.91
2022-08-02T05:47:48.985Z,18.94
2022-08-02T05:50:16.231Z,18.98
2022-08-02T05:52:50.117Z,19.15
2022-08-02T05:55:26.712Z,19.24
2022-08-02T05:58:22.287Z,19.51
2022-08-02T06:00:54.084Z,19.67
2022-08-02T06:03:25.470Z,19.69
2022-08-02T06:06:15.393Z,19.81
2022-08-02T06:08:48.081Z,19.94
2022-08-02T06:11:22.026Z,20.04
2022-08-02T06:14:00.250Z,20.09
2022-08-02T06:16:33.105Z,19.95
2022-08-02T06:19:11.665Z,20.08
2022-08-02T06:22:37.799Z,20.16
2022-08-02T06:24:34.101Z,20.17
2022-08-02T06:27:02.563Z,20.12
2022-08-02T06:29:38.735Z,20.34
2022-08-02T06:32:07.749Z,20.56
2022-08-02T06:34:39.579Z,20.81
2022-08-02T06:37:26.512Z,20.87
2022-08-02T06:40:17.961Z,21.15
2022-08-02T06:43:00.841Z,21.28
2022-08-02T06:45:27.985Z,21.43
2022-08-02T06:47:54.845Z,21.51
2022-08-02T06:50:21.884Z,21.44
2022-08-02T06:52:49.568Z,21.66
2022-08-02T06:55:16.859Z,21.90
2022-08-02T06:57:43.756Z,22.12
2022-08-02T07:00:12.544Z,22.20
2022-08-02T07:02:42.689Z,21.90
2022-08-02T07:05:09.892Z,21.72
2022-08-02T07:07:37.299Z,21.73
2022-08-02T07:10:06.249Z,21.58
2022-08-02T07:12:35.126Z,21.44
2022-08-02T07:15:06.804Z,21.47
2022-08-02T07:17:34.986Z,21.52
2022-08-02T07:20:02.062Z,21.67
2022-08-02T07:22:29.744Z,21.76
2022-08-02T07:24:59.746Z,21.80
2022-08-02T07:27:28.278Z,22.20
2022-08-02T07:29:55.982Z,22.40
2022-08-02T07:32:27.748Z,22.42
2022-08-02T07:34:55.878Z,22.41
2022-08-02T07:37:53.115Z,22.46
2022-08-02T07:40:20.005Z,22.67
2022-08-02T07:42:57.858Z,22.98
2022-08-02T07:45:30.545Z,23.03
2022-08-02T07:48:00.816Z,22.92
2022-08-02T07:50:28.574Z,22.97
2022-08-02T07:52:57.225Z,22.73
2022-08-02T07:55:38.988Z,23.00
2022-08-02T07:58:13.227Z,23.17
2022-08-02T08:00:43.710Z,23.28
2022-08-02T08:03:12.237Z,23.37
2022-08-02T08:05:39.981Z,23.69
2022-08-02T08:08:07.211Z,23.84
2022-08-02T08:10:34.666Z,23.62
2022-08-02T08:13:01.750Z,23.92
2022-08-02T08:15:28.572Z,23.89
2022-08-02T08:17:55.408Z,23.90
2022-08-02T08:20:23.132Z,24.23
2022-08-02T08:22:53.294Z,24.44
2022-08-02T08:25:20.371Z,24.48
2022-08-02T08:27:54.042Z,24.59
2022-08-02T08:30:22.502Z,24.80
2022-08-02T08:32:49.659Z,24.58
2022-08-02T08:35:17.307Z,24.38
2022-08-02T08:37:44.960Z,24.24
2022-08-02T08:40:12.989Z,24.39
2022-08-02T08:42:47.425Z,24.40
2022-08-02T08:45:14.404Z,24.55
2022-08-02T08:47:43.009Z,24.75
2022-08-02T08:50:24.905Z,24.93
2022-08-02T08:53:07.813Z,25.03
2022-08-02T08:55:37.829Z,24.92
2022-08-02T08:58:07.325Z,25.08
2022-08-02T09:00:36.279Z,25.12
2022-08-02T09:03:06.909Z,24.93
2022-08-02T09:05:39.360Z,25.06
2022-08-02T09:08:08.085Z,25.24
2022-08-02T09:10:45.357Z,25.24
2022-08-02T09:13:38.283Z,25.58
2022-08-02T09:16:12.138Z,25.80
2022-08-02T09:18:47.121Z,25.93
2022-08-02T09:21:17.367Z,26.19
2022-08-02T09:23:47.932Z,26.26
2022-08-02T09:26:23.396Z,26.37
2022-08-02T09:28:53.475Z,26.27
2022-08-02T09:31:25.025Z,26.35
2022-08-02T09:33:57.805Z,26.29
2022-08-02T09:36:28.114Z,26.46
2022-08-02T09:39:05.091Z,26.56
2022-08-02T09:41:35.879Z,26.77
2022-08-02T09:44:07.114Z,26.95
2022-08-02T09:46:43.706Z,26.95
2022-08-02T09:49:13.332Z,27.06
2022-08-02T09:51:47.699Z,26.93
2022-08-02T09:54:26.483Z,27.20
2022-08-02T09:57:00.918Z,27.17
2022-08-02T09:59:29.503Z,27.16
2022-08-02T10:02:04.143Z,27.10
2022-08-02T10:04:34.315Z,27.08
2022-08-02T10:07:22.939Z,27.28
2022-08-02T10:09:52.035Z,27.56
2022-08-02T10:12:33.104Z,27.64
2022-08-02T10:15:00.556Z,27.90
2022-08-02T10:17:27.604Z,28.09
2022-08-02T10:20:03.023Z,28.00
2022-08-02T10:22:34.353Z,28.11
2022-08-02T10:25:04.615Z,28.24
2022-08-02T10:27:55.125Z,28.23
2022-08-02T10:30:21.403Z,28.43
2022-08-02T10:32:49.765Z,28.43
2022-08-02T10:35:25.345Z,28.64
2022-08-02T10:38:08.927Z,28.39
2022-08-02T10:40:51.690Z,28.08
2022-08-02T10:43:36.660Z,28.09
2022-08-02T10:46:30.959Z,28.00
2022-08-02T10:52:06.168Z,28.38
2022-08-02T10:54:38.447Z,28.64
2022-08-02T10:57:24.348Z,28.59
2022-08-02T11:00:10.443Z,28.66
2022-08-02T11:02:44.097Z,28.74
2022-08-02T11:05:42.797Z,28.47
2022-08-02T11:08:22.145Z,28.61
2022-08-02T11:10:49.054Z,28.47
2022-08-02T11:13:19.547Z,28.50
2022-08-02T11:15:52.483Z,28.39
2022-08-02T11:18:21.337Z,28.57
2022-08-02T11:21:21.217Z,28.69
2022-08-02T11:23:48.338Z,28.95
2022-08-02T11:26:30.244Z,29.14
2022-08-02T11:29:01.340Z,29.18
2022-08-02T11:31:30.066Z,29.16
2022-08-02T11:33:56.644Z,29.26
2022-08-02T11:36:23.332Z,29.49
2022-08-02T11:38:50.075Z,29.46
2022-08-02T11:41:46.744Z,29.59
2022-08-02T11:44:10.680Z,29.62
2022-08-02T11:46:37.478Z,29.70
2022-08-02T11:49:18.787Z,29.78
2022-08-02T11:52:06.635Z,29.99
2022-08-02T11:54:40.133Z,30.14
2022-08-02T11:57:22.752Z,30.22
2022-08-02T11:59:56.037Z,30.29
2022-08-02T12:02:31.703Z,30.21
2022-08-02T12:05:05.447Z,30.26
2022-08-02T12:07:45.526Z,30.28
2022-08-02T12:10:22.328Z,30.21
2022-08-02T12:12:59.723Z,30.08
2022-08-02T12:15:44.725Z,30.13
2022-08-02T12:18:35.576Z,30.24
2022-08-02T12:21:20.289Z,30.42
2022-08-02T12:23:59.321Z,30.30
2022-08-02T12:26:30.880Z,30.10
2022-08-02T12:29:01.447Z,30.01
2022-08-02T12:31:57.328Z,30.07
2022-08-02T12:34:31.914Z,29.85
2022-08-02T12:37:00.133Z,29.96
2022-08-02T12:39:45.043Z,29.72
2022-08-02T12:42:15.540Z,29.58
2022-08-02T12:44:57.584Z,29.65
2022-08-02T12:47:24.953Z,29.74
2022-08-02T12:50:29.857Z,29.88
2022-08-02T12:53:13.406Z,30.01
2022-08-02T12:55:59.995Z,30.34
2022-08-02T12:58:46.575Z,30.43
2022-08-02T13:01:25.296Z,30.53
2022-08-02T13:04:09.227Z,30.50
2022-08-02T13:06:43.936Z,30.49
2022-08-02T13:09:14.899Z,30.50
2022-08-02T13:11:49.840Z,30.89
2022-08-02T13:14:16.891Z,30.95
2022-08-02T13:16:46.218Z,31.22
2022-08-02T13:19:15.672Z,31.50
2022-08-02T13:22:01.560Z,31.99
2022-08-02T13:24:39.892Z,33.12
2022-08-02T13:27:21.294Z,34.48
2022-08-02T13:29:51.024Z,34.77
2022-08-02T13:32:21.947Z,34.91
2022-08-02T13:34:50.931Z,35.81
2022-08-02T13:37:19.994Z,34.97
2022-08-02T13:40:00.452Z,34.04
2022-08-02T13:42:34.390Z,33.43
2022-08-02T13:45:11.857Z,33.01
2022-08-02T13:48:03.369Z,32.70
2022-08-02T13:50:34.094Z,32.70
2022-08-02T13:53:01.497Z,32.91
2022-08-02T13:55:28.305Z,32.61
2022-08-02T13:57:55.140Z,32.46
2022-08-02T14:00:34.963Z,32.39
2022-08-02T14:03:08.547Z,32.32
2022-08-02T14:05:47.400Z,32.55
2022-08-02T14:08:18.011Z,33.35
2022-08-02T14:10:47.497Z,34.51
2022-08-02T14:13:14.395Z,34.80
2022-08-02T14:15:41.116Z,35.53
2022-08-02T14:18:07.906Z,36.42
2022-08-02T14:20:34.690Z,36.54
2022-08-02T14:23:01.417Z,36.55
2022-08-02T14:25:28.132Z,35.97
2022-08-02T14:27:58.036Z,35.72
2022-08-02T14:30:24.763Z,34.91
2022-08-02T14:32:51.458Z,34.38
2022-08-02T14:35:18.619Z,34.07
2022-08-02T14:37:45.441Z,34.85
2022-08-02T14:40:27.816Z,35.89
2022-08-02T14:42:59.395Z,36.12
2022-08-02T14:45:40.961Z,35.15
2022-08-02T14:48:11.203Z,34.78
2022-08-02T14:50:37.991Z,35.17
2022-08-02T14:53:05.080Z,35.90
2022-08-02T14:55:31.834Z,35.89
2022-08-02T14:57:58.558Z,35.88
2022-08-02T15:00:25.290Z,36.58
2022-08-02T15:02:54.623Z,36.09
2022-08-02T15:05:21.320Z,35.05
2022-08-02T15:07:49.775Z,34.06
2022-08-02T15:10:17.010Z,33.44
2022-08-02T15:12:45.706Z,33.16
2022-08-02T15:15:12.348Z,32.96
2022-08-02T15:17:39.061Z,32.45
2022-08-02T15:20:25.285Z,32.35
2022-08-02T15:22:53.349Z,32.27
2022-08-02T15:25:21.797Z,32.35
2022-08-02T15:27:48.552Z,32.30
2022-08-02T15:30:15.399Z,32.08
2022-08-02T15:32:52.967Z,31.95
2022-08-02T15:35:21.377Z,31.70
2022-08-02T15:37:48.227Z,31.57
2022-08-02T15:40:17.664Z,31.59
2022-08-02T15:42:44.473Z,31.42
2022-08-02T15:45:14.658Z,31.36
2022-08-02T15:47:47.957Z,31.19
2022-08-02T15:50:18.540Z,31.15
2022-08-02T15:52:45.353Z,31.05
2022-08-02T15:55:12.053Z,30.80
2022-08-02T15:57:38.817Z,30.70
2022-08-02T16:00:15.746Z,30.72
2022-08-02T16:02:47.407Z,30.52
2022-08-02T16:05:17.632Z,30.73
2022-08-02T16:07:45.981Z,30.70
2022-08-02T16:10:12.783Z,31.22
2022-08-02T16:12:39.463Z,31.56
2022-08-02T16:15:06.956Z,31.61
2022-08-02T16:17:49.437Z,31.37
2022-08-02T16:20:22.250Z,31.09
2022-08-02T16:22:48.958Z,31.02
2022-08-02T16:25:17.262Z,30.97
2022-08-02T16:28:06.249Z,31.04
2022-08-02T16:30:31.948Z,31.39
2022-08-02T16:32:58.639Z,31.58
2022-08-02T16:35:25.371Z,31.81
2022-08-02T16:37:52.845Z,31.73
2022-08-02T16:40:21.479Z,32.17
2022-08-02T16:42:50.833Z,32.83
2022-08-02T16:45:22.531Z,33.16
2022-08-02T16:47:56.287Z,33.06
2022-08-02T16:50:28.304Z,32.69
2022-08-02T16:52:58.698Z,32.09
2022-08-02T16:55:29.210Z,31.77
2022-08-02T16:57:59.165Z,31.54
2022-08-02T17:00:26.118Z,31.10
2022-08-02T17:02:53.395Z,30.75
2022-08-02T17:05:21.015Z,30.62
2022-08-02T17:08:07.696Z,30.40
2022-08-02T17:10:36.195Z,30.24
2022-08-02T17:13:11.443Z,29.98
2022-08-02T17:16:16.968Z,29.79
2022-08-02T17:18:30.316Z,29.67
2022-08-02T17:20:57.899Z,29.61
2022-08-02T17:24:03.962Z,29.43
2022-08-02T17:26:13.176Z,29.16
2022-08-02T17:28:56.467Z,29.16
2022-08-02T17:31:29.847Z,28.96
2022-08-02T17:33:57.163Z,28.88
2022-08-02T17:36:26.051Z,28.76
2022-08-02T17:38:52.703Z,28.70
2022-08-02T17:41:19.352Z,28.49
2022-08-02T17:44:05.881Z,28.49
2022-08-02T17:46:35.161Z,28.38
2022-08-02T17:49:23.921Z,28.31
2022-08-02T17:52:15.611Z,28.24
2022-08-02T17:54:38.899Z,28.12
2022-08-02T17:57:05.737Z,28.13
2022-08-02T17:59:42.217Z,28.05
2022-08-02T18:02:11.096Z,28.11
2022-08-02T18:04:38.409Z,27.99
2022-08-02T18:07:09.462Z,27.93
2022-08-02T18:09:36.919Z,27.95
2022-08-02T18:12:04.282Z,27.88
2022-08-02T18:14:31.018Z,27.81
2022-08-02T18:16:57.803Z,27.85
2022-08-02T18:19:42.286Z,27.77
2022-08-02T18:22:10.287Z,27.72
2022-08-02T18:24:38.141Z,27.72
2022-08-02T18:27:05.096Z,27.60
2022-08-02T18:29:38.574Z,27.52
2022-08-02T18:34:53.577Z,27.27
2022-08-02T18:37:20.249Z,27.26
2022-08-02T18:39:51.437Z,27.17
2022-08-02T18:42:18.587Z,27.09
2022-08-02T18:44:45.370Z,26.99
2022-08-02T18:47:11.997Z,26.91
2022-08-02T18:49:46.741Z,26.87
2022-08-02T18:52:30.663Z,26.85
2022-08-02T18:54:57.996Z,26.77
2022-08-02T18:58:18.099Z,26.67
2022-08-02T19:00:13.498Z,26.48
2022-08-02T19:02:40.386Z,26.35
2022-08-02T19:05:07.808Z,26.26
2022-08-02T19:07:50.401Z,26.13
2022-08-02T19:10:19.060Z,26.15
2022-08-02T19:12:46.251Z,26.09
2022-08-02T19:15:18.716Z,25.96
2022-08-02T19:17:55.534Z,26.02
2022-08-02T19:20:25.726Z,25.84
2022-08-02T19:22:53.577Z,25.68
2022-08-02T19:25:21.494Z,25.58
2022-08-02T19:27:55.412Z,25.54
2022-08-02T19:30:25.614Z,25.47
2022-08-02T19:32:58.875Z,25.35
2022-08-02T19:35:30.783Z,25.40
2022-08-02T19:38:10.512Z,25.35
2022-08-02T19:40:41.878Z,25.24
2022-08-02T19:44:24.498Z,25.28
2022-08-02T19:45:58.106Z,25.22
2022-08-02T19:48:26.748Z,25.11
2022-08-02T19:50:56.062Z,25.08
2022-08-02T19:53:48.274Z,25.08
2022-08-02T19:56:24.843Z,25.01
2022-08-02T19:58:55.665Z,24.91
2022-08-02T20:01:36.641Z,24.93
2022-08-02T20:04:06.590Z,24.90
2022-08-02T20:06:33.301Z,24.83
2022-08-02T20:09:01.127Z,24.79
2022-08-02T20:11:34.885Z,24.74
2022-08-02T20:14:05.986Z,24.69
2022-08-02T20:16:34.567Z,24.67
2022-08-02T20:19:09.699Z,24.70
2022-08-02T20:21:37.792Z,24.74
2022-08-02T20:24:09.999Z,24.63
2022-08-02T20:26:46.964Z,24.61
2022-08-02T20:29:14.993Z,24.59
2022-08-02T20:31:44.282Z,24.55
2022-08-02T20:34:10.887Z,24.57
2022-08-02T20:36:38.141Z,24.54
2022-08-02T20:39:05.003Z,24.52
2022-08-02T20:41:45.851Z,24.51
2022-08-02T20:44:29.909Z,24.49
2022-08-02T20:46:59.223Z,24.40
2022-08-02T20:49:41.318Z,24.24
2022-08-02T20:52:23.045Z,23.97
2022-08-02T20:54:51.759Z,23.85
2022-08-02T20:57:18.767Z,23.76
2022-08-02T20:59:51.938Z,23.61
2022-08-02T21:02:32.551Z,23.80
2022-08-02T21:04:59.400Z,23.71
2022-08-02T21:07:34.548Z,23.71
2022-08-02T21:10:01.268Z,23.64
2022-08-02T21:12:30.266Z,23.67
2022-08-02T21:14:57.178Z,23.70
2022-08-02T21:17:43.180Z,23.66
2022-08-02T21:20:13.069Z,23.44
2022-08-02T21:22:44.608Z,23.30
2022-08-02T21:25:15.888Z,23.12
2022-08-02T21:27:53.515Z,23.07
2022-08-02T21:30:24.369Z,22.91
2022-08-02T21:32:54.625Z,22.78
2022-08-02T21:35:24.898Z,22.62
2022-08-02T21:37:58.184Z,22.51
2022-08-02T21:40:25.301Z,22.48
2022-08-02T21:42:54.087Z,22.44
2022-08-02T21:45:20.923Z,22.38
2022-08-02T21:47:48.431Z,22.18
2022-08-02T21:50:16.297Z,21.94
2022-08-02T21:52:51.102Z,21.99
2022-08-02T21:55:23.956Z,22.02
2022-08-02T21:57:51.420Z,21.82
2022-08-02T22:00:28.917Z,22.04
2022-08-02T22:02:56.134Z,21.94
2022-08-02T22:05:25.808Z,21.98
2022-08-02T22:07:52.402Z,22.09
2022-08-02T22:10:19.081Z,22.21
2022-08-02T22:12:45.647Z,22.32
2022-08-02T22:15:14.474Z,22.33
2022-08-02T22:17:53.561Z,22.22
2022-08-02T22:20:26.582Z,22.17
2022-08-02T22:22:56.048Z,22.23
2022-08-02T22:25:36.231Z,22.19
2022-08-02T22:28:38.085Z,22.25
2022-08-02T22:30:54.358Z,22.21
2022-08-02T22:36:33.363Z,22.26
2022-08-02T22:39:02.125Z,22.02
2022-08-02T22:42:05.899Z,21.87
2022-08-02T22:44:17.649Z,21.73
2022-08-02T22:46:45.522Z,21.73
2022-08-02T22:49:18.656Z,21.90
2022-08-02T22:51:59.259Z,21.77
2022-08-02T22:54:25.993Z,21.61
2022-08-02T22:56:52.697Z,21.58
2022-08-02T22:58:44.536Z,27.41
2022-08-02T22:59:12.332Z,22.31
2022-08-02T22:59:19.910Z,21.58
2022-08-02T23:02:05.495Z,21.62
2022-08-02T23:04:32.616Z,21.42
2022-08-02T23:06:59.299Z,21.31
2022-08-02T23:09:25.936Z,21.10
2022-08-02T23:11:52.593Z,20.99
2022-08-02T23:14:22.691Z,20.94
2022-08-02T23:17:08.651Z,20.98
2022-08-02T23:19:50.756Z,20.88
2022-08-02T23:22:29.930Z,20.65
2022-08-02T23:25:01.122Z,20.68
2022-08-02T23:27:29.170Z,20.61
2022-08-02T23:29:56.071Z,20.57
2022-08-02T23:32:25.517Z,20.40
2022-08-02T23:34:53.991Z,20.53
2022-08-02T23:37:21.057Z,20.49
2022-08-02T23:39:47.670Z,20.62
2022-08-02T23:42:15.018Z,20.68
2022-08-02T23:44:41.938Z,20.63
2022-08-02T23:47:11.158Z,20.38
2022-08-02T23:49:38.278Z,20.38
2022-08-02T23:52:04.959Z,20.34
2022-08-02T23:54:31.821Z,20.32
2022-08-02T23:56:59.212Z,20.28
2022-08-02T23:59:26.045Z,20.21
